sensor_id;sensor_type;location;lat;lon;timestamp;temperature;humidity
7958;DHT22;4024;52.172;5.378;2023-06-04T00:00:36;17.20;99.90
7958;DHT22;4024;52.172;5.378;2023-06-04T00:03:01;17.30;99.90
7958;DHT22;4024;52.172;5.378;2023-06-04T00:05:27;17.20;99.90
7958;DHT22;4024;52.172;5.378;2023-06-04T00:07:53;17.20;99.90
7958;DHT22;4024;52.172;5.378;2023-06-04T00:10:19;17.20;99.90
7958;DHT22;4024;52.172;5.378;2023-06-04T00:12:44;17.10;99.90
7958;DHT22;4024;52.172;5.378;2023-06-04T00:15:10;17.10;99.90
7958;DHT22;4024;52.172;5.378;2023-06-04T00:17:36;17.00;99.90
7958;DHT22;4024;52.172;5.378;2023-06-04T00:20:02;17.00;99.90
7958;DHT22;4024;52.172;5.378;2023-06-04T00:22:28;17.00;99.90
7958;DHT22;4024;52.172;5.378;2023-06-04T00:24:54;16.90;99.90
7958;DHT22;4024;52.172;5.378;2023-06-04T00:27:19;17.00;99.90
7958;DHT22;4024;52.172;5.378;2023-06-04T00:29:47;16.90;99.90
7958;DHT22;4024;52.172;5.378;2023-06-04T00:32:12;16.80;99.90
7958;DHT22;4024;52.172;5.378;2023-06-04T00:34:39;16.80;99.90
7958;DHT22;4024;52.172;5.378;2023-06-04T00:37:05;16.80;99.90
7958;DHT22;4024;52.172;5.378;2023-06-04T00:39:32;16.80;99.90
7958;DHT22;4024;52.172;5.378;2023-06-04T00:41:57;16.70;99.90
7958;DHT22;4024;52.172;5.378;2023-06-04T00:44:23;16.70;99.90
7958;DHT22;4024;52.172;5.378;2023-06-04T00:46:51;16.70;99.90
7958;DHT22;4024;52.172;5.378;2023-06-04T00:49:19;16.70;99.90
7958;DHT22;4024;52.172;5.378;2023-06-04T00:51:45;16.70;99.90
7958;DHT22;4024;52.172;5.378;2023-06-04T00:54:12;16.60;99.90
7958;DHT22;4024;52.172;5.378;2023-06-04T00:56:38;16.60;99.90
7958;DHT22;4024;52.172;5.378;2023-06-04T00:59:07;16.50;99.90
7958;DHT22;4024;52.172;5.378;2023-06-04T01:04:14;16.50;99.90
7958;DHT22;4024;52.172;5.378;2023-06-04T01:06:44;16.40;99.90
7958;DHT22;4024;52.172;5.378;2023-06-04T01:09:10;16.40;99.90
7958;DHT22;4024;52.172;5.378;2023-06-04T01:11:38;16.40;99.90
7958;DHT22;4024;52.172;5.378;2023-06-04T01:14:07;16.30;99.90
7958;DHT22;4024;52.172;5.378;2023-06-04T01:16:40;16.30;99.90
7958;DHT22;4024;52.172;5.378;2023-06-04T01:19:29;16.20;99.90
7958;DHT22;4024;52.172;5.378;2023-06-04T01:22:03;16.20;99.90
7958;DHT22;4024;52.172;5.378;2023-06-04T01:24:34;16.20;99.90
7958;DHT22;4024;52.172;5.378;2023-06-04T01:27:03;16.10;99.90
7958;DHT22;4024;52.172;5.378;2023-06-04T01:29:31;16.10;99.90
7958;DHT22;4024;52.172;5.378;2023-06-04T01:31:57;16.10;99.90
7958;DHT22;4024;52.172;5.378;2023-06-04T01:34:23;16.10;99.90
7958;DHT22;4024;52.172;5.378;2023-06-04T01:36:49;16.10;99.90
7958;DHT22;4024;52.172;5.378;2023-06-04T01:39:16;16.00;99.90
7958;DHT22;4024;52.172;5.378;2023-06-04T01:41:42;16.00;99.90
7958;DHT22;4024;52.172;5.378;2023-06-04T01:44:08;16.00;99.90
7958;DHT22;4024;52.172;5.378;2023-06-04T01:46:33;15.90;99.90
7958;DHT22;4024;52.172;5.378;2023-06-04T01:48:59;15.90;99.90
7958;DHT22;4024;52.172;5.378;2023-06-04T01:51:24;15.90;99.90
7958;DHT22;4024;52.172;5.378;2023-06-04T01:53:50;15.80;99.90
7958;DHT22;4024;52.172;5.378;2023-06-04T01:56:16;15.80;99.90
7958;DHT22;4024;52.172;5.378;2023-06-04T01:58:41;15.80;99.90
7958;DHT22;4024;52.172;5.378;2023-06-04T02:01:07;15.70;99.90
7958;DHT22;4024;52.172;5.378;2023-06-04T02:03:32;15.70;99.90
7958;DHT22;4024;52.172;5.378;2023-06-04T02:06:03;15.70;99.90
7958;DHT22;4024;52.172;5.378;2023-06-04T02:08:30;15.70;99.90
7958;DHT22;4024;52.172;5.378;2023-06-04T02:10:55;15.60;99.90
7958;DHT22;4024;52.172;5.378;2023-06-04T02:13:21;15.60;99.90
7958;DHT22;4024;52.172;5.378;2023-06-04T02:15:47;15.60;99.90
7958;DHT22;4024;52.172;5.378;2023-06-04T02:18:20;15.60;99.90
7958;DHT22;4024;52.172;5.378;2023-06-04T02:20:50;15.60;99.90
7958;DHT22;4024;52.172;5.378;2023-06-04T02:23:17;15.60;99.90
7958;DHT22;4024;52.172;5.378;2023-06-04T02:25:44;15.50;99.90
7958;DHT22;4024;52.172;5.378;2023-06-04T02:28:10;15.50;99.90
7958;DHT22;4024;52.172;5.378;2023-06-04T02:30:36;15.40;99.90
7958;DHT22;4024;52.172;5.378;2023-06-04T02:33:02;15.40;99.90
7958;DHT22;4024;52.172;5.378;2023-06-04T02:35:30;15.40;99.90
7958;DHT22;4024;52.172;5.378;2023-06-04T02:37:56;15.40;99.90
7958;DHT22;4024;52.172;5.378;2023-06-04T02:40:26;15.30;99.90
7958;DHT22;4024;52.172;5.378;2023-06-04T02:42:53;15.30;99.90
7958;DHT22;4024;52.172;5.378;2023-06-04T02:45:19;15.30;99.90
7958;DHT22;4024;52.172;5.378;2023-06-04T02:47:45;15.20;99.90
7958;DHT22;4024;52.172;5.378;2023-06-04T02:50:12;15.20;99.90
7958;DHT22;4024;52.172;5.378;2023-06-04T02:52:39;15.20;99.90
7958;DHT22;4024;52.172;5.378;2023-06-04T02:55:06;15.20;99.90
7958;DHT22;4024;52.172;5.378;2023-06-04T02:57:33;15.20;99.90
7958;DHT22;4024;52.172;5.378;2023-06-04T03:00:03;15.10;99.90
7958;DHT22;4024;52.172;5.378;2023-06-04T03:02:42;15.10;99.90
7958;DHT22;4024;52.172;5.378;2023-06-04T03:05:09;15.10;99.90
7958;DHT22;4024;52.172;5.378;2023-06-04T03:07:42;15.10;99.90
7958;DHT22;4024;52.172;5.378;2023-06-04T03:10:09;15.00;99.90
7958;DHT22;4024;52.172;5.378;2023-06-04T03:12:36;15.00;99.90
7958;DHT22;4024;52.172;5.378;2023-06-04T03:15:04;15.00;99.90
7958;DHT22;4024;52.172;5.378;2023-06-04T03:17:30;15.00;99.90
7958;DHT22;4024;52.172;5.378;2023-06-04T03:19:57;14.90;99.90
7958;DHT22;4024;52.172;5.378;2023-06-04T03:22:22;14.90;99.90
7958;DHT22;4024;52.172;5.378;2023-06-04T03:24:48;14.90;99.90
7958;DHT22;4024;52.172;5.378;2023-06-04T03:27:14;14.90;99.90
7958;DHT22;4024;52.172;5.378;2023-06-04T03:29:41;14.90;99.90
7958;DHT22;4024;52.172;5.378;2023-06-04T03:32:08;14.80;99.90
7958;DHT22;4024;52.172;5.378;2023-06-04T03:34:33;14.80;99.90
7958;DHT22;4024;52.172;5.378;2023-06-04T03:36:59;14.80;99.90
7958;DHT22;4024;52.172;5.378;2023-06-04T03:39:25;14.80;99.90
7958;DHT22;4024;52.172;5.378;2023-06-04T03:41:50;14.80;99.90
7958;DHT22;4024;52.172;5.378;2023-06-04T03:44:17;14.80;99.90
7958;DHT22;4024;52.172;5.378;2023-06-04T03:46:43;14.80;99.90
7958;DHT22;4024;52.172;5.378;2023-06-04T03:49:10;14.80;99.90
7958;DHT22;4024;52.172;5.378;2023-06-04T03:51:37;14.80;99.90
7958;DHT22;4024;52.172;5.378;2023-06-04T03:54:03;14.80;99.90
7958;DHT22;4024;52.172;5.378;2023-06-04T03:56:29;14.80;99.90
7958;DHT22;4024;52.172;5.378;2023-06-04T03:58:54;14.80;99.90
7958;DHT22;4024;52.172;5.378;2023-06-04T04:01:20;14.80;99.90
7958;DHT22;4024;52.172;5.378;2023-06-04T04:03:46;14.70;99.90
7958;DHT22;4024;52.172;5.378;2023-06-04T04:06:15;14.80;99.90
7958;DHT22;4024;52.172;5.378;2023-06-04T04:08:41;14.70;99.90
7958;DHT22;4024;52.172;5.378;2023-06-04T04:11:13;14.70;99.90
7958;DHT22;4024;52.172;5.378;2023-06-04T04:13:39;14.70;99.90
7958;DHT22;4024;52.172;5.378;2023-06-04T04:16:05;14.70;99.90
7958;DHT22;4024;52.172;5.378;2023-06-04T04:18:34;14.70;99.90
7958;DHT22;4024;52.172;5.378;2023-06-04T04:21:00;14.70;99.90
7958;DHT22;4024;52.172;5.378;2023-06-04T04:23:26;14.70;99.90
7958;DHT22;4024;52.172;5.378;2023-06-04T04:25:52;14.70;99.90
7958;DHT22;4024;52.172;5.378;2023-06-04T04:28:19;14.80;99.90
7958;DHT22;4024;52.172;5.378;2023-06-04T04:30:46;14.70;99.90
7958;DHT22;4024;52.172;5.378;2023-06-04T04:33:12;14.70;99.90
7958;DHT22;4024;52.172;5.378;2023-06-04T04:35:42;14.70;99.90
7958;DHT22;4024;52.172;5.378;2023-06-04T04:38:08;14.70;99.90
7958;DHT22;4024;52.172;5.378;2023-06-04T04:40:36;14.80;99.90
7958;DHT22;4024;52.172;5.378;2023-06-04T04:43:01;14.80;99.90
7958;DHT22;4024;52.172;5.378;2023-06-04T04:45:27;14.90;99.90
7958;DHT22;4024;52.172;5.378;2023-06-04T04:47:52;15.10;99.90
7958;DHT22;4024;52.172;5.378;2023-06-04T04:50:18;15.40;99.90
7958;DHT22;4024;52.172;5.378;2023-06-04T04:52:44;15.80;99.90
7958;DHT22;4024;52.172;5.378;2023-06-04T04:55:09;16.20;99.90
7958;DHT22;4024;52.172;5.378;2023-06-04T04:57:37;16.80;99.90
7958;DHT22;4024;52.172;5.378;2023-06-04T05:00:04;17.20;99.90
7958;DHT22;4024;52.172;5.378;2023-06-04T05:02:37;17.70;99.90
7958;DHT22;4024;52.172;5.378;2023-06-04T05:05:04;18.30;99.90
7958;DHT22;4024;52.172;5.378;2023-06-04T05:07:29;18.80;99.90
7958;DHT22;4024;52.172;5.378;2023-06-04T05:09:55;19.20;99.90
7958;DHT22;4024;52.172;5.378;2023-06-04T05:12:21;19.60;99.90
7958;DHT22;4024;52.172;5.378;2023-06-04T05:14:46;20.00;99.90
7958;DHT22;4024;52.172;5.378;2023-06-04T05:17:12;20.40;99.90
7958;DHT22;4024;52.172;5.378;2023-06-04T05:19:38;20.70;99.90
7958;DHT22;4024;52.172;5.378;2023-06-04T05:22:04;21.00;99.90
7958;DHT22;4024;52.172;5.378;2023-06-04T05:24:32;21.40;99.90
7958;DHT22;4024;52.172;5.378;2023-06-04T05:26:59;21.60;99.90
7958;DHT22;4024;52.172;5.378;2023-06-04T05:29:24;21.90;99.90
7958;DHT22;4024;52.172;5.378;2023-06-04T05:31:50;22.20;99.90
7958;DHT22;4024;52.172;5.378;2023-06-04T05:34:16;22.50;99.90
7958;DHT22;4024;52.172;5.378;2023-06-04T05:36:42;22.80;99.90
7958;DHT22;4024;52.172;5.378;2023-06-04T05:39:09;23.00;99.90
7958;DHT22;4024;52.172;5.378;2023-06-04T05:41:35;23.30;99.90
7958;DHT22;4024;52.172;5.378;2023-06-04T05:44:01;23.40;99.90
7958;DHT22;4024;52.172;5.378;2023-06-04T05:46:27;23.60;99.80
7958;DHT22;4024;52.172;5.378;2023-06-04T05:48:53;23.80;99.10
7958;DHT22;4024;52.172;5.378;2023-06-04T05:51:19;24.00;98.70
7958;DHT22;4024;52.172;5.378;2023-06-04T05:53:46;24.10;97.50
7958;DHT22;4024;52.172;5.378;2023-06-04T05:56:12;24.30;96.30
7958;DHT22;4024;52.172;5.378;2023-06-04T05:58:39;24.40;95.50
7958;DHT22;4024;52.172;5.378;2023-06-04T06:01:05;24.40;95.10
7958;DHT22;4024;52.172;5.378;2023-06-04T06:03:31;24.50;95.00
7958;DHT22;4024;52.172;5.378;2023-06-04T06:05:57;24.60;94.60
7958;DHT22;4024;52.172;5.378;2023-06-04T06:08:25;24.70;94.40
7958;DHT22;4024;52.172;5.378;2023-06-04T06:10:50;24.80;93.90
7958;DHT22;4024;52.172;5.378;2023-06-04T06:13:16;24.90;93.30
7958;DHT22;4024;52.172;5.378;2023-06-04T06:15:43;25.10;92.70
7958;DHT22;4024;52.172;5.378;2023-06-04T06:18:09;25.20;92.00
7958;DHT22;4024;52.172;5.378;2023-06-04T06:20:34;25.40;91.20
7958;DHT22;4024;52.172;5.378;2023-06-04T06:23:06;25.50;90.80
7958;DHT22;4024;52.172;5.378;2023-06-04T06:25:32;25.70;90.20
7958;DHT22;4024;52.172;5.378;2023-06-04T06:27:57;25.80;89.40
7958;DHT22;4024;52.172;5.378;2023-06-04T06:30:23;26.00;88.30
7958;DHT22;4024;52.172;5.378;2023-06-04T06:32:49;26.10;86.40
7958;DHT22;4024;52.172;5.378;2023-06-04T06:35:15;26.20;84.70
7958;DHT22;4024;52.172;5.378;2023-06-04T06:37:41;26.40;84.00
7958;DHT22;4024;52.172;5.378;2023-06-04T06:40:09;26.60;83.40
7958;DHT22;4024;52.172;5.378;2023-06-04T06:42:35;26.70;81.40
7958;DHT22;4024;52.172;5.378;2023-06-04T06:45:00;26.80;79.10
7958;DHT22;4024;52.172;5.378;2023-06-04T06:47:26;26.90;78.00
7958;DHT22;4024;52.172;5.378;2023-06-04T06:49:52;26.90;76.30
7958;DHT22;4024;52.172;5.378;2023-06-04T06:52:17;26.90;76.50
7958;DHT22;4024;52.172;5.378;2023-06-04T06:54:45;27.00;76.10
7958;DHT22;4024;52.172;5.378;2023-06-04T06:57:11;27.00;74.50
7958;DHT22;4024;52.172;5.378;2023-06-04T06:59:37;27.00;74.10
7958;DHT22;4024;52.172;5.378;2023-06-04T07:02:03;27.10;73.10
7958;DHT22;4024;52.172;5.378;2023-06-04T07:04:29;27.10;71.90
7958;DHT22;4024;52.172;5.378;2023-06-04T07:06:54;27.20;72.40
7958;DHT22;4024;52.172;5.378;2023-06-04T07:09:20;27.30;72.60
7958;DHT22;4024;52.172;5.378;2023-06-04T07:11:46;27.40;72.30
7958;DHT22;4024;52.172;5.378;2023-06-04T07:14:11;27.50;72.40
7958;DHT22;4024;52.172;5.378;2023-06-04T07:16:37;27.50;72.10
7958;DHT22;4024;52.172;5.378;2023-06-04T07:19:03;27.60;71.40
7958;DHT22;4024;52.172;5.378;2023-06-04T07:21:28;27.70;70.30
7958;DHT22;4024;52.172;5.378;2023-06-04T07:23:54;27.70;69.10
7958;DHT22;4024;52.172;5.378;2023-06-04T07:26:20;27.70;68.80
7958;DHT22;4024;52.172;5.378;2023-06-04T07:28:45;27.70;68.30
7958;DHT22;4024;52.172;5.378;2023-06-04T07:31:14;27.80;68.00
7958;DHT22;4024;52.172;5.378;2023-06-04T07:33:40;27.80;68.20
7958;DHT22;4024;52.172;5.378;2023-06-04T07:36:13;27.70;68.20
7958;DHT22;4024;52.172;5.378;2023-06-04T07:38:39;27.80;68.20
7958;DHT22;4024;52.172;5.378;2023-06-04T07:41:05;27.90;67.10
7958;DHT22;4024;52.172;5.378;2023-06-04T07:43:33;27.80;66.70
7958;DHT22;4024;52.172;5.378;2023-06-04T07:45:59;27.70;66.60
7958;DHT22;4024;52.172;5.378;2023-06-04T07:48:25;27.70;67.10
7958;DHT22;4024;52.172;5.378;2023-06-04T07:50:59;27.70;67.40
7958;DHT22;4024;52.172;5.378;2023-06-04T07:53:25;27.70;68.20
7958;DHT22;4024;52.172;5.378;2023-06-04T07:55:51;27.70;67.40
7958;DHT22;4024;52.172;5.378;2023-06-04T07:58:17;27.60;66.20
7958;DHT22;4024;52.172;5.378;2023-06-04T08:00:43;27.50;66.40
7958;DHT22;4024;52.172;5.378;2023-06-04T08:03:08;27.50;66.60
7958;DHT22;4024;52.172;5.378;2023-06-04T08:05:34;27.40;67.30
7958;DHT22;4024;52.172;5.378;2023-06-04T08:08:00;27.40;66.40
7958;DHT22;4024;52.172;5.378;2023-06-04T08:10:26;27.40;66.40
7958;DHT22;4024;52.172;5.378;2023-06-04T08:12:52;27.30;66.00
7958;DHT22;4024;52.172;5.378;2023-06-04T08:15:18;27.30;65.90
7958;DHT22;4024;52.172;5.378;2023-06-04T08:17:44;27.30;65.90
7958;DHT22;4024;52.172;5.378;2023-06-04T08:20:10;27.30;64.60
7958;DHT22;4024;52.172;5.378;2023-06-04T08:22:35;27.30;64.60
7958;DHT22;4024;52.172;5.378;2023-06-04T08:25:01;27.30;64.60
7958;DHT22;4024;52.172;5.378;2023-06-04T08:27:26;27.30;63.50
7958;DHT22;4024;52.172;5.378;2023-06-04T08:29:52;27.30;63.20
7958;DHT22;4024;52.172;5.378;2023-06-04T08:32:18;27.30;63.30
7958;DHT22;4024;52.172;5.378;2023-06-04T08:34:44;27.20;63.00
7958;DHT22;4024;52.172;5.378;2023-06-04T08:37:09;27.20;63.00
7958;DHT22;4024;52.172;5.378;2023-06-04T08:39:35;27.20;62.10
7958;DHT22;4024;52.172;5.378;2023-06-04T08:42:04;27.20;62.00
7958;DHT22;4024;52.172;5.378;2023-06-04T08:44:33;27.20;61.90
7958;DHT22;4024;52.172;5.378;2023-06-04T08:47:03;27.20;62.70
7958;DHT22;4024;52.172;5.378;2023-06-04T08:49:35;27.20;63.30
7958;DHT22;4024;52.172;5.378;2023-06-04T08:52:04;27.20;62.50
7958;DHT22;4024;52.172;5.378;2023-06-04T08:54:31;27.20;61.10
7958;DHT22;4024;52.172;5.378;2023-06-04T08:56:57;27.30;60.40
7958;DHT22;4024;52.172;5.378;2023-06-04T08:59:27;27.30;60.40
7958;DHT22;4024;52.172;5.378;2023-06-04T09:01:53;27.20;59.60
7958;DHT22;4024;52.172;5.378;2023-06-04T09:04:20;27.20;60.00
7958;DHT22;4024;52.172;5.378;2023-06-04T09:06:48;27.10;60.30
7958;DHT22;4024;52.172;5.378;2023-06-04T09:09:14;27.00;59.40
7958;DHT22;4024;52.172;5.378;2023-06-04T09:11:51;27.00;59.10
7958;DHT22;4024;52.172;5.378;2023-06-04T09:14:17;26.90;59.40
7958;DHT22;4024;52.172;5.378;2023-06-04T09:16:50;26.90;59.50
7958;DHT22;4024;52.172;5.378;2023-06-04T09:19:17;26.90;59.00
7958;DHT22;4024;52.172;5.378;2023-06-04T09:22:01;27.00;59.40
7958;DHT22;4024;52.172;5.378;2023-06-04T09:24:45;26.90;59.10
7958;DHT22;4024;52.172;5.378;2023-06-04T09:27:16;26.90;58.80
7958;DHT22;4024;52.172;5.378;2023-06-04T09:29:52;26.90;58.20
7958;DHT22;4024;52.172;5.378;2023-06-04T09:32:26;26.90;57.80
7958;DHT22;4024;52.172;5.378;2023-06-04T09:34:52;26.80;57.70
7958;DHT22;4024;52.172;5.378;2023-06-04T09:37:18;26.80;57.70
7958;DHT22;4024;52.172;5.378;2023-06-04T09:39:56;26.70;57.80
7958;DHT22;4024;52.172;5.378;2023-06-04T09:42:22;26.50;57.80
7958;DHT22;4024;52.172;5.378;2023-06-04T09:44:48;26.60;58.30
7958;DHT22;4024;52.172;5.378;2023-06-04T09:47:14;26.50;58.30
7958;DHT22;4024;52.172;5.378;2023-06-04T09:49:49;26.50;58.30
7958;DHT22;4024;52.172;5.378;2023-06-04T09:52:16;26.50;57.40
7958;DHT22;4024;52.172;5.378;2023-06-04T09:54:42;26.50;57.60
7958;DHT22;4024;52.172;5.378;2023-06-04T09:57:18;26.50;56.40
7958;DHT22;4024;52.172;5.378;2023-06-04T09:59:54;26.40;55.80
7958;DHT22;4024;52.172;5.378;2023-06-04T10:02:21;26.40;55.80
7958;DHT22;4024;52.172;5.378;2023-06-04T10:04:53;26.30;56.10
7958;DHT22;4024;52.172;5.378;2023-06-04T10:07:20;26.30;56.10
7958;DHT22;4024;52.172;5.378;2023-06-04T10:09:46;26.20;55.50
7958;DHT22;4024;52.172;5.378;2023-06-04T10:12:16;26.10;55.40
7958;DHT22;4024;52.172;5.378;2023-06-04T10:14:50;26.00;54.10
7958;DHT22;4024;52.172;5.378;2023-06-04T10:17:17;25.90;54.40
7958;DHT22;4024;52.172;5.378;2023-06-04T10:19:44;25.90;54.80
7958;DHT22;4024;52.172;5.378;2023-06-04T10:22:10;25.90;54.10
7958;DHT22;4024;52.172;5.378;2023-06-04T10:24:37;25.80;53.70
7958;DHT22;4024;52.172;5.378;2023-06-04T10:27:03;25.80;53.30
7958;DHT22;4024;52.172;5.378;2023-06-04T10:29:35;25.70;54.00
7958;DHT22;4024;52.172;5.378;2023-06-04T10:32:01;25.60;53.90
7958;DHT22;4024;52.172;5.378;2023-06-04T10:34:27;25.50;55.00
7958;DHT22;4024;52.172;5.378;2023-06-04T10:36:53;25.50;55.80
7958;DHT22;4024;52.172;5.378;2023-06-04T10:39:28;25.50;55.70
7958;DHT22;4024;52.172;5.378;2023-06-04T10:42:02;25.40;56.20
7958;DHT22;4024;52.172;5.378;2023-06-04T10:44:31;25.30;56.10
7958;DHT22;4024;52.172;5.378;2023-06-04T10:46:58;25.30;56.40
7958;DHT22;4024;52.172;5.378;2023-06-04T10:49:28;25.20;56.60
7958;DHT22;4024;52.172;5.378;2023-06-04T10:51:54;25.20;57.70
7958;DHT22;4024;52.172;5.378;2023-06-04T10:54:29;25.10;57.90
7958;DHT22;4024;52.172;5.378;2023-06-04T10:56:54;25.10;57.80
7958;DHT22;4024;52.172;5.378;2023-06-04T10:59:21;25.00;58.40
7958;DHT22;4024;52.172;5.378;2023-06-04T11:01:47;25.10;59.10
7958;DHT22;4024;52.172;5.378;2023-06-04T11:04:26;25.00;59.80
7958;DHT22;4024;52.172;5.378;2023-06-04T11:07:02;25.00;59.50
7958;DHT22;4024;52.172;5.378;2023-06-04T11:09:29;25.00;59.30
7958;DHT22;4024;52.172;5.378;2023-06-04T11:11:59;25.00;59.50
7958;DHT22;4024;52.172;5.378;2023-06-04T11:14:25;25.00;60.00
7958;DHT22;4024;52.172;5.378;2023-06-04T11:16:50;25.00;60.90
7958;DHT22;4024;52.172;5.378;2023-06-04T11:19:16;25.00;60.20
7958;DHT22;4024;52.172;5.378;2023-06-04T11:21:42;25.00;60.50
7958;DHT22;4024;52.172;5.378;2023-06-04T11:24:08;25.00;60.20
7958;DHT22;4024;52.172;5.378;2023-06-04T11:26:35;25.00;60.00
7958;DHT22;4024;52.172;5.378;2023-06-04T11:29:10;25.00;60.50
7958;DHT22;4024;52.172;5.378;2023-06-04T11:31:46;24.90;61.80
7958;DHT22;4024;52.172;5.378;2023-06-04T11:34:29;25.00;61.20
7958;DHT22;4024;52.172;5.378;2023-06-04T11:36:55;25.00;61.50
7958;DHT22;4024;52.172;5.378;2023-06-04T11:39:22;24.90;62.00
7958;DHT22;4024;52.172;5.378;2023-06-04T11:41:49;25.00;62.10
7958;DHT22;4024;52.172;5.378;2023-06-04T11:44:18;25.00;62.40
7958;DHT22;4024;52.172;5.378;2023-06-04T11:46:44;25.00;61.90
7958;DHT22;4024;52.172;5.378;2023-06-04T11:49:17;25.10;62.30
7958;DHT22;4024;52.172;5.378;2023-06-04T11:51:51;25.10;61.50
7958;DHT22;4024;52.172;5.378;2023-06-04T11:54:17;25.10;62.20
7958;DHT22;4024;52.172;5.378;2023-06-04T11:56:43;25.10;62.80
7958;DHT22;4024;52.172;5.378;2023-06-04T11:59:11;25.10;62.10
7958;DHT22;4024;52.172;5.378;2023-06-04T12:01:39;25.20;61.60
7958;DHT22;4024;52.172;5.378;2023-06-04T12:04:19;25.20;61.10
7958;DHT22;4024;52.172;5.378;2023-06-04T12:06:56;25.20;61.50
7958;DHT22;4024;52.172;5.378;2023-06-04T12:09:23;25.20;61.90
7958;DHT22;4024;52.172;5.378;2023-06-04T12:11:49;25.30;61.30
7958;DHT22;4024;52.172;5.378;2023-06-04T12:14:18;25.30;61.50
7958;DHT22;4024;52.172;5.378;2023-06-04T12:17:02;25.30;61.60
7958;DHT22;4024;52.172;5.378;2023-06-04T12:19:30;25.30;62.00
7958;DHT22;4024;52.172;5.378;2023-06-04T12:22:06;25.40;62.80
7958;DHT22;4024;52.172;5.378;2023-06-04T12:24:33;25.40;61.50
7958;DHT22;4024;52.172;5.378;2023-06-04T12:27:07;25.40;61.00
7958;DHT22;4024;52.172;5.378;2023-06-04T12:29:36;25.50;61.70
7958;DHT22;4024;52.172;5.378;2023-06-04T12:32:09;25.60;61.90
7958;DHT22;4024;52.172;5.378;2023-06-04T12:34:39;25.60;61.30
7958;DHT22;4024;52.172;5.378;2023-06-04T12:37:06;25.70;61.00
7958;DHT22;4024;52.172;5.378;2023-06-04T12:39:35;25.80;61.20
7958;DHT22;4024;52.172;5.378;2023-06-04T12:42:07;25.70;60.60
7958;DHT22;4024;52.172;5.378;2023-06-04T12:44:37;25.80;59.60
7958;DHT22;4024;52.172;5.378;2023-06-04T12:47:03;25.80;60.20
7958;DHT22;4024;52.172;5.378;2023-06-04T12:49:29;25.80;61.70
7958;DHT22;4024;52.172;5.378;2023-06-04T12:51:55;25.90;60.60
7958;DHT22;4024;52.172;5.378;2023-06-04T12:54:20;25.80;60.50
7958;DHT22;4024;52.172;5.378;2023-06-04T12:56:46;26.00;63.40
7958;DHT22;4024;52.172;5.378;2023-06-04T12:59:12;26.10;66.20
7958;DHT22;4024;52.172;5.378;2023-06-04T13:01:38;26.10;67.40
7958;DHT22;4024;52.172;5.378;2023-06-04T13:04:04;26.10;68.30
7958;DHT22;4024;52.172;5.378;2023-06-04T13:06:29;26.10;69.30
7958;DHT22;4024;52.172;5.378;2023-06-04T13:08:55;26.10;69.50
7958;DHT22;4024;52.172;5.378;2023-06-04T13:11:21;26.00;69.80
7958;DHT22;4024;52.172;5.378;2023-06-04T13:13:47;26.10;70.10
7958;DHT22;4024;52.172;5.378;2023-06-04T13:16:13;26.00;71.90
7958;DHT22;4024;52.172;5.378;2023-06-04T13:18:40;26.00;72.10
7958;DHT22;4024;52.172;5.378;2023-06-04T13:21:05;26.00;72.60
7958;DHT22;4024;52.172;5.378;2023-06-04T13:23:31;26.00;72.70
7958;DHT22;4024;52.172;5.378;2023-06-04T13:25:57;25.90;73.00
7958;DHT22;4024;52.172;5.378;2023-06-04T13:28:23;25.90;73.60
7958;DHT22;4024;52.172;5.378;2023-06-04T13:30:48;26.00;73.90
7958;DHT22;4024;52.172;5.378;2023-06-04T13:33:14;25.90;73.10
7958;DHT22;4024;52.172;5.378;2023-06-04T13:35:40;25.90;74.10
7958;DHT22;4024;52.172;5.378;2023-06-04T13:38:07;25.90;74.60
7958;DHT22;4024;52.172;5.378;2023-06-04T13:40:36;25.90;74.00
7958;DHT22;4024;52.172;5.378;2023-06-04T13:43:02;25.90;73.90
7958;DHT22;4024;52.172;5.378;2023-06-04T13:45:28;25.90;74.30
7958;DHT22;4024;52.172;5.378;2023-06-04T13:47:54;25.90;75.00
7958;DHT22;4024;52.172;5.378;2023-06-04T13:50:19;25.90;72.90
7958;DHT22;4024;52.172;5.378;2023-06-04T13:52:45;25.90;73.20
7958;DHT22;4024;52.172;5.378;2023-06-04T13:55:12;25.90;72.90
7958;DHT22;4024;52.172;5.378;2023-06-04T13:57:38;25.90;73.30
7958;DHT22;4024;52.172;5.378;2023-06-04T14:00:05;25.90;73.00
7958;DHT22;4024;52.172;5.378;2023-06-04T14:02:31;25.80;72.90
7958;DHT22;4024;52.172;5.378;2023-06-04T14:04:57;25.80;73.10
7958;DHT22;4024;52.172;5.378;2023-06-04T14:07:23;25.80;73.00
7958;DHT22;4024;52.172;5.378;2023-06-04T14:09:48;25.80;72.40
7958;DHT22;4024;52.172;5.378;2023-06-04T14:12:20;25.80;72.30
7958;DHT22;4024;52.172;5.378;2023-06-04T14:14:46;25.80;71.50
7958;DHT22;4024;52.172;5.378;2023-06-04T14:17:17;25.70;71.10
7958;DHT22;4024;52.172;5.378;2023-06-04T14:19:43;25.70;70.90
7958;DHT22;4024;52.172;5.378;2023-06-04T14:22:10;25.70;71.80
7958;DHT22;4024;52.172;5.378;2023-06-04T14:24:36;25.60;71.90
7958;DHT22;4024;52.172;5.378;2023-06-04T14:27:01;25.70;72.40
7958;DHT22;4024;52.172;5.378;2023-06-04T14:29:28;25.70;71.30
7958;DHT22;4024;52.172;5.378;2023-06-04T14:31:54;25.60;72.00
7958;DHT22;4024;52.172;5.378;2023-06-04T14:34:19;25.60;73.20
7958;DHT22;4024;52.172;5.378;2023-06-04T14:36:46;25.60;71.40
7958;DHT22;4024;52.172;5.378;2023-06-04T14:39:12;25.70;71.90
7958;DHT22;4024;52.172;5.378;2023-06-04T14:41:38;25.60;71.90
7958;DHT22;4024;52.172;5.378;2023-06-04T14:44:03;25.60;71.70
7958;DHT22;4024;52.172;5.378;2023-06-04T14:46:29;25.60;72.20
7958;DHT22;4024;52.172;5.378;2023-06-04T14:48:55;25.50;71.80
7958;DHT22;4024;52.172;5.378;2023-06-04T14:51:20;25.50;72.70
7958;DHT22;4024;52.172;5.378;2023-06-04T14:53:48;25.50;73.00
7958;DHT22;4024;52.172;5.378;2023-06-04T14:56:13;25.40;73.40
7958;DHT22;4024;52.172;5.378;2023-06-04T14:58:39;25.40;73.50
7958;DHT22;4024;52.172;5.378;2023-06-04T15:01:05;25.30;74.20
7958;DHT22;4024;52.172;5.378;2023-06-04T15:03:31;25.30;74.70
7958;DHT22;4024;52.172;5.378;2023-06-04T15:05:57;25.20;75.70
7958;DHT22;4024;52.172;5.378;2023-06-04T15:08:23;25.20;76.50
7958;DHT22;4024;52.172;5.378;2023-06-04T15:10:48;25.20;78.00
7958;DHT22;4024;52.172;5.378;2023-06-04T15:13:14;25.10;78.00
7958;DHT22;4024;52.172;5.378;2023-06-04T15:15:40;25.20;78.60
7958;DHT22;4024;52.172;5.378;2023-06-04T15:18:06;25.10;79.30
7958;DHT22;4024;52.172;5.378;2023-06-04T15:20:32;25.20;80.40
7958;DHT22;4024;52.172;5.378;2023-06-04T15:22:58;25.20;79.10
7958;DHT22;4024;52.172;5.378;2023-06-04T15:25:24;25.20;79.20
7958;DHT22;4024;52.172;5.378;2023-06-04T15:27:50;25.10;79.00
7958;DHT22;4024;52.172;5.378;2023-06-04T15:30:15;25.10;79.60
7958;DHT22;4024;52.172;5.378;2023-06-04T15:32:43;25.10;80.10
7958;DHT22;4024;52.172;5.378;2023-06-04T15:35:09;25.10;80.50
7958;DHT22;4024;52.172;5.378;2023-06-04T15:37:35;25.10;80.70
7958;DHT22;4024;52.172;5.378;2023-06-04T15:40:00;25.10;81.50
7958;DHT22;4024;52.172;5.378;2023-06-04T15:42:26;25.10;81.80
7958;DHT22;4024;52.172;5.378;2023-06-04T15:44:52;25.20;82.30
7958;DHT22;4024;52.172;5.378;2023-06-04T15:47:17;25.20;83.20
7958;DHT22;4024;52.172;5.378;2023-06-04T15:49:43;25.20;83.00
7958;DHT22;4024;52.172;5.378;2023-06-04T15:52:09;25.10;83.20
7958;DHT22;4024;52.172;5.378;2023-06-04T15:54:34;25.10;83.80
7958;DHT22;4024;52.172;5.378;2023-06-04T15:57:01;25.20;84.40
7958;DHT22;4024;52.172;5.378;2023-06-04T15:59:26;25.10;84.60
7958;DHT22;4024;52.172;5.378;2023-06-04T16:01:52;25.10;86.30
7958;DHT22;4024;52.172;5.378;2023-06-04T16:04:18;25.20;84.60